Medeiros Neto, Brazil
Current Conditions -  °F | °C
As of 5:00 AM on Saturday 25 Oct 2014 (Local Time) from SBPS Reporting Station
Rain Showers Rain Showers  
Wind Chill: 70°   Ceiling: 5000
Heat Index: 70°   Visibility: 5mi
Dew Point: 68°   Wind: 3mph
Humidity: 94%   Direction: 260°W
Pressure: 29.94"   Gusts: NA
Location:  17.37°S, 40.22°W
Report Text: SBPS 250800Z 26003KT 8000 VCSH SCT012 SCT020 BKN050 21/20 Q1014
Loading
Personal Weather Stations






























Interactive Weather Map
Tropical Storm Tracking
New forecast layout! Learn more

10-Day Weather Forecast

Advertisements
Track Severe Weather on mobile